Wilson Gdynia — 8PSA — position and weather

sailwx.info

Track history (hours):
 
Tides and Currents Weather Stations Pressure Air Temp Water Temp Dewpoint Dewpoint Depression Visibility Wind Speed Wind Dir Waves Ship Positions

Wilson Gdynia

Last reported at 2016-Jun-01 03:34 UTC. Time now 2016-Jun-01 03:42 UTC.
Position N 55°12' E 007°26'.

Length 88 m; draft 4.9 m.

Type: Cargo ship. MMSI: 314192000.

Date/timePositionNaut miles runAvg speedWind from/ knotsBaromVisibWave heightAir tempDewpointWater temp
2016-Jun-01 03:34N 55°12' E 007°26'10 9.7
2016-Jun-01 02:34N 55°02' E 007°28'10 9.9
2016-Jun-01 01:34N 54°52' E 007°30'1010.1
2016-Jun-01 00:33N 54°42' E 007°31'1110.5
2016-May-31 23:33N 54°31' E 007°33'1111.0
2016-May-31 22:34N 54°20' E 007°35'1010.3
2016-May-31 21:33N 54°11' E 007°43'1111.0
2016-May-31 20:34N 54°04' E 007°57'1111.2
2016-May-31 19:33N 54°01' E 008°16'1111.1
2016-May-31 18:33N 53°58' E 008°34'8 8.3
2016-May-31 17:33N 53°52' E 008°44'8 7.7
2016-May-31 16:33N 53°51' E 008°57'10 9.8
2016-May-31 15:34N 53°53' E 009°13'1211.7
2016-May-31 14:33N 53°44' E 009°26'1212.0
2016-May-31 13:33N 53°35' E 009°39'1111.1
2016-May-31 12:33N 53°31' E 009°56'1 1.1
2016-May-31 11:31N 53°30' E 009°57'0 0.0
2016-May-31 10:31N 53°30' E 009°57'0 0.0
2016-May-31 09:31N 53°30' E 009°57'0 0.0
2016-May-31 08:31N 53°30' E 009°57'0 0.0
2016-May-31 07:31N 53°30' E 009°57'0 0.0
2016-May-31 06:31N 53°30' E 009°57'1 0.8
2016-May-31 04:33N 53°32' E 009°56'8 8.4
2016-May-31 03:34N 53°34' E 009°43'9 9.3
2016-May-31 02:33N 53°40' E 009°31'9 9.4
2016-May-31 01:33N 53°48' E 009°23'8 8.3
2016-May-31 00:33N 53°53' E 009°11'8 8.5
2016-May-30 23:34N 53°51' E 008°57'7 7.2
2016-May-30 22:33N 53°51' E 008°45'8 7.6
2016-May-30 21:31N 53°57' E 008°37'8 8.8
2016-May-30 20:33N 53°59' E 008°22'10 9.6
2016-May-30 19:32N 53°59' E 008°06'1010.4
2016-May-30 18:33N 53°57' E 007°49'9 9.0
2016-May-30 17:34N 54°01' E 007°35'6 5.8
2016-May-30 16:32N 54°03' E 007°25'0 0.0
2016-May-30 15:32N 54°03' E 007°25'0 0.0
2016-May-30 14:26N 54°03' E 007°25'0 0.0
2016-May-30 13:32N 54°03' E 007°25'0 0.0
2016-May-30 12:26N 54°03' E 007°25'0 0.0
2016-May-30 11:29N 54°03' E 007°25'0 0.0
2016-May-30 10:32N 54°03' E 007°25'0 0.0
2016-May-30 09:32N 54°03' E 007°25'0 0.0
2016-May-30 08:32N 54°03' E 007°25'0 0.0
2016-May-30 07:32N 54°03' E 007°25'0 0.0
2016-May-30 06:26N 54°03' E 007°25'0 0.0
2016-May-30 05:29N 54°03' E 007°25'0 0.0
2016-May-30 04:32N 54°03' E 007°25'0 0.0
2016-May-30 03:32N 54°03' E 007°25'0 0.0
2016-May-30 02:32N 54°03' E 007°25'0 0.0
2016-May-30 01:32N 54°03' E 007°25'0 0.0
2016-May-30 00:32N 54°03' E 007°25'0 0.0
2016-May-29 23:32N 54°03' E 007°25'0 0.0
2016-May-29 22:32N 54°03' E 007°25'0 0.0
2016-May-29 21:33N 54°03' E 007°25'0 0.0
2016-May-29 20:32N 54°03' E 007°25'0 0.0
2016-May-29 19:29N 54°03' E 007°25'0 0.0
2016-May-29 18:26N 54°03' E 007°25'0 0.0
2016-May-29 17:29N 54°03' E 007°25'0 0.0
2016-May-29 16:29N 54°03' E 007°25'0 0.0
2016-May-29 15:23N 54°03' E 007°25'0 0.0
2016-May-29 14:32N 54°03' E 007°25'0 0.0
2016-May-29 13:32N 54°03' E 007°25'0 0.0
2016-May-29 12:14N 54°03' E 007°25'0 0.0
2016-May-29 11:33N 54°03' E 007°25'0 0.1
2016-May-29 10:32N 54°03' E 007°25'0 0.0
2016-May-29 09:32N 54°03' E 007°25'0 0.0
2016-May-29 08:29N 54°03' E 007°25'0 0.0
2016-May-29 07:32N 54°03' E 007°25'0 0.0
2016-May-29 06:32N 54°03' E 007°25'0 0.0
2016-May-29 05:32N 54°03' E 007°25'0 0.0
2016-May-29 04:29N 54°03' E 007°25'0 0.0
2016-May-29 03:32N 54°03' E 007°25'0 0.1
2016-May-29 02:26N 54°03' E 007°25'0 0.0
2016-May-29 01:32N 54°03' E 007°25'0 0.0
2016-May-29 00:32N 54°03' E 007°25'0 0.1
2016-May-28 23:32N 54°03' E 007°25'0 0.0
2016-May-28 22:29N 54°03' E 007°25'0 0.0
2016-May-28 21:32N 54°03' E 007°25'0 0.0
2016-May-28 20:32N 54°03' E 007°25'0 0.0
2016-May-28 19:26N 54°03' E 007°25'0 0.0
2016-May-28 18:32N 54°03' E 007°25'0 0.0
2016-May-28 17:29N 54°03' E 007°25'0 0.0
2016-May-28 16:27N 54°03' E 007°25'0 0.0
2016-May-28 15:32N 54°03' E 007°25'0 0.1
2016-May-28 14:32N 54°03' E 007°25'0 0.0
2016-May-28 13:32N 54°03' E 007°25'0 0.0
2016-May-28 12:32N 54°03' E 007°25'0 0.0
2016-May-28 11:31N 54°03' E 007°25'0 0.1
2016-May-28 10:32N 54°03' E 007°25'0 0.0
2016-May-28 09:32N 54°03' E 007°25'0 0.0
2016-May-28 08:32N 54°03' E 007°25'0 0.0
2016-May-28 07:32N 54°03' E 007°25'0 0.0
2016-May-28 06:33N 54°03' E 007°25'0 0.0
2016-May-28 05:26N 54°03' E 007°25'0 0.0
2016-May-28 04:32N 54°03' E 007°25'0 0.0
2016-May-28 03:32N 54°03' E 007°25'0 0.1
2016-May-28 02:32N 54°03' E 007°25'0 0.0
2016-May-28 01:32N 54°03' E 007°25'0 0.0
2016-May-28 00:32N 54°03' E 007°25'0 0.0
2016-May-27 23:32N 54°03' E 007°25'0 0.1
2016-May-27 22:32N 54°03' E 007°25'0 0.1
2016-May-27 21:32N 54°03' E 007°25'0 0.0
2016-May-27 20:32N 54°03' E 007°25'0 0.0
2016-May-27 19:32N 54°03' E 007°25'0 0.0
2016-May-27 18:32N 54°03' E 007°25'0 0.0
2016-May-27 17:32N 54°03' E 007°25'0 0.0
2016-May-27 16:32N 54°03' E 007°25'0 0.0
2016-May-27 15:26N 54°03' E 007°25'0 0.1
2016-May-27 14:32N 54°03' E 007°25'0 0.0
2016-May-27 13:32N 54°03' E 007°25'0 0.0
2016-May-27 12:32N 54°03' E 007°25'0 0.0
2016-May-27 11:32N 54°03' E 007°25'0 0.0
2016-May-27 10:32N 54°03' E 007°25'0 0.1
2016-May-27 09:26N 54°03' E 007°25'0 0.0
2016-May-27 08:29N 54°03' E 007°25'0 0.0
2016-May-27 07:29N 54°03' E 007°25'0 0.0
2016-May-27 06:32N 54°03' E 007°25'0 0.0
2016-May-27 05:29N 54°03' E 007°25'0 0.0
2016-May-27 04:32N 54°03' E 007°25'0 0.0
2016-May-27 03:32N 54°03' E 007°25'0 0.1
2016-May-27 02:32N 54°03' E 007°25'0 0.0
2016-May-27 01:32N 54°03' E 007°25'0 0.0
2016-May-27 00:32N 54°03' E 007°25'0 0.0
2016-May-26 23:32N 54°03' E 007°25'0 0.0
2016-May-26 22:32N 54°03' E 007°25'0 0.0
2016-May-26 21:26N 54°03' E 007°25'0 0.1
2016-May-26 20:32N 54°03' E 007°25'0 0.0
2016-May-26 19:32N 54°03' E 007°25'0 0.0
2016-May-26 18:32N 54°03' E 007°25'8 7.7
2016-May-26 17:33N 54°10' E 007°19'9 9.3
2016-May-26 16:34N 54°11' E 007°34'1211.9
2016-May-26 15:33N 54°07' E 007°53'1110.9
2016-May-26 14:33N 54°03' E 008°10'1 0.8
2016-May-26 13:32N 54°02' E 008°11'0 0.0
2016-May-26 12:32N 54°02' E 008°11'0 0.0
2016-May-26 11:29N 54°02' E 008°11'0 0.0
2016-May-26 10:32N 54°02' E 008°11'0 0.0
2016-May-26 09:29N 54°02' E 008°11'0 0.1
2016-May-26 08:32N 54°02' E 008°11'0 0.0
2016-May-26 07:33N 54°02' E 008°11'0 0.0
2016-May-26 06:32N 54°02' E 008°11'0 0.0
2016-May-26 05:32N 54°02' E 008°11'0 0.0
2016-May-26 04:29N 54°02' E 008°11'0 0.1
2016-May-26 03:32N 54°02' E 008°11'0 0.0
2016-May-26 02:29N 54°02' E 008°11'0 0.0
2016-May-26 01:33N 54°02' E 008°11'0 0.0
2016-May-26 00:32N 54°02' E 008°11'0 0.0
2016-May-25 23:32N 54°02' E 008°11'0 0.0
2016-May-25 22:32N 54°02' E 008°11'0 0.1
2016-May-25 21:33N 54°02' E 008°11'0 0.0
2016-May-25 20:32N 54°02' E 008°11'0 0.0
2016-May-25 19:32N 54°02' E 008°11'0 0.0
2016-May-25 18:32N 54°02' E 008°11'0 0.0
2016-May-25 17:32N 54°02' E 008°11'0 0.0
2016-May-25 16:29N 54°02' E 008°11'0 0.0
2016-May-25 15:32N 54°02' E 008°11'0 0.1
2016-May-25 14:32N 54°02' E 008°11'0 0.1
2016-May-25 13:32N 54°02' E 008°11'0 0.0
2016-May-25 12:26N 54°02' E 008°11'0 0.0
2016-May-25 11:33N 54°02' E 008°11'0 0.0
2016-May-25 10:29N 54°02' E 008°11'0 0.0
2016-May-25 09:29N 54°02' E 008°11'0 0.1
2016-May-25 08:32N 54°02' E 008°11'0 0.0
2016-May-25 07:32N 54°02' E 008°11'0 0.0
2016-May-25 06:32N 54°02' E 008°11'0 0.0
2016-May-25 05:32N 54°02' E 008°11'0 0.0
2016-May-25 04:32N 54°02' E 008°11'0 0.0
2016-May-25 03:32N 54°02' E 008°11'0 0.1
2016-May-25 02:32N 54°02' E 008°11'0 0.0
2016-May-25 01:27N 54°02' E 008°11'0 0.0
2016-May-25 00:30N 54°02' E 008°11'0 0.0
2016-May-24 23:29N 54°02' E 008°11'0 0.0
2016-May-24 22:29N 54°02' E 008°11'0 0.0
2016-May-24 21:23N 54°02' E 008°11'0 0.1
2016-May-24 20:32N 54°02' E 008°11'0 0.0
2016-May-24 19:32N 54°02' E 008°11'0 0.0
2016-May-24 18:32N 54°02' E 008°11'0 0.0
2016-May-24 17:32N 54°02' E 008°11'0 0.0
2016-May-24 16:32N 54°02' E 008°11'0 0.0
2016-May-24 15:32N 54°02' E 008°11'0 0.1
2016-May-24 14:26N 54°02' E 008°11'0 0.0
2016-May-24 13:31N 54°02' E 008°11'0 0.0
2016-May-24 12:32N 54°02' E 008°11'0 0.0
2016-May-24 11:29N 54°02' E 008°11'0 0.0
2016-May-24 10:32N 54°02' E 008°11'0 0.0
2016-May-24 09:32N 54°02' E 008°11'0 0.0
2016-May-24 08:27N 54°02' E 008°11'0 0.0
2016-May-24 07:32N 54°02' E 008°11'0 0.0
2016-May-24 06:32N 54°02' E 008°11'0 0.1
2016-May-24 05:33N 54°02' E 008°11'0 0.0
2016-May-24 04:32N 54°02' E 008°11'0 0.0
2016-May-24 03:32N 54°02' E 008°11'0 0.1
2016-May-24 02:32N 54°02' E 008°11'0 0.0
2016-May-24 01:32N 54°02' E 008°11'0 0.0
2016-May-24 00:32N 54°02' E 008°11'0 0.0
2016-May-23 23:32N 54°02' E 008°11'0 0.0
2016-May-23 22:32N 54°02' E 008°11'0 0.0
2016-May-23 21:32N 54°02' E 008°11'0 0.0
2016-May-23 20:32N 54°02' E 008°11'0 0.0
2016-May-23 19:32N 54°02' E 008°11'0 0.0
2016-May-23 18:32N 54°02' E 008°11'0 0.1
2016-May-23 17:29N 54°02' E 008°11'0 0.0
2016-May-23 16:32N 54°02' E 008°11'0 0.0
2016-May-23 15:32N 54°02' E 008°11'0 0.0
2016-May-23 14:32N 54°02' E 008°11'0 0.0
2016-May-23 13:32N 54°02' E 008°11'0 0.0
2016-May-23 12:32N 54°02' E 008°11'0 0.0
2016-May-23 11:32N 54°02' E 008°11'0 0.0
2016-May-23 10:33N 54°02' E 008°11'0 0.0
2016-May-23 09:33N 54°02' E 008°11'0 0.0
2016-May-23 08:32N 54°02' E 008°11'0 0.0
2016-May-23 07:29N 54°02' E 008°11'0 0.0
2016-May-23 06:32N 54°02' E 008°11'0 0.0
2016-May-23 05:32N 54°02' E 008°11'0 0.0
2016-May-23 04:32N 54°02' E 008°11'0 0.0
2016-May-23 03:33N 54°02' E 008°11'0 0.0
2016-May-23 02:32N 54°02' E 008°11'0 0.0
2016-May-23 01:30N 54°02' E 008°11'0 0.0
2016-May-23 00:32N 54°02' E 008°11'0 0.1
2016-May-22 23:32N 54°02' E 008°11'0 0.0
2016-May-22 22:27N 54°02' E 008°11'0 0.0
2016-May-22 21:32N 54°02' E 008°11'0 0.0
2016-May-22 20:32N 54°02' E 008°11'0 0.5
2016-May-22 19:33N 54°02' E 008°12'1312.6
2016-May-22 18:33N 53°58' E 008°33'1414.0
2016-May-22 17:34N 53°51' E 008°52'1414.0
2016-May-22 16:34N 53°53' E 009°16'1211.8
2016-May-22 15:34N 53°43' E 009°28'9 9.3
2016-May-22 14:34N 53°35' E 009°37'9 9.4
2016-May-22 13:34N 53°33' E 009°52'2 1.8
2016-May-22 12:31N 53°31' E 009°53'0 0.0
2016-May-22 11:31N 53°31' E 009°53'0 0.0
2016-May-22 10:28N 53°31' E 009°53'0 0.0
2016-May-22 09:31N 53°31' E 009°53'0 0.0
2016-May-22 08:31N 53°31' E 009°53'0 0.0
2016-May-22 07:31N 53°31' E 009°53'0 0.0
2016-May-22 06:28N 53°31' E 009°53'0 0.0
2016-May-22 05:28N 53°31' E 009°53'0 0.0
2016-May-22 04:31N 53°31' E 009°53'  
Track history (hours):
 
Tides and Currents Weather Stations Pressure Air Temp Water Temp Dewpoint Dewpoint Depression Visibility Wind Speed Wind Dir Waves Ship Positions

Wilson Gdynia

Last reported at 2016-Jun-01 03:34 UTC. Time now 2016-Jun-01 03:42 UTC.
Position N 55°12' E 007°26'.

Length 88 m; draft 4.9 m.

Type: Cargo ship. MMSI: 314192000.

Date/timePositionNaut miles runAvg speedWind from/ knotsBaromVisibWave heightAir tempDewpointWater temp
2016-Jun-01 03:34N 55°12' E 007°26'10 9.7
2016-Jun-01 02:34N 55°02' E 007°28'10 9.9
2016-Jun-01 01:34N 54°52' E 007°30'1010.1
2016-Jun-01 00:33N 54°42' E 007°31'1110.5
2016-May-31 23:33N 54°31' E 007°33'1111.0
2016-May-31 22:34N 54°20' E 007°35'1010.3
2016-May-31 21:33N 54°11' E 007°43'1111.0
2016-May-31 20:34N 54°04' E 007°57'1111.2
2016-May-31 19:33N 54°01' E 008°16'1111.1
2016-May-31 18:33N 53°58' E 008°34'8 8.3
2016-May-31 17:33N 53°52' E 008°44'8 7.7
2016-May-31 16:33N 53°51' E 008°57'10 9.8
2016-May-31 15:34N 53°53' E 009°13'1211.7
2016-May-31 14:33N 53°44' E 009°26'1212.0
2016-May-31 13:33N 53°35' E 009°39'1111.1
2016-May-31 12:33N 53°31' E 009°56'1 1.1
2016-May-31 11:31N 53°30' E 009°57'0 0.0
2016-May-31 10:31N 53°30' E 009°57'0 0.0
2016-May-31 09:31N 53°30' E 009°57'0 0.0
2016-May-31 08:31N 53°30' E 009°57'0 0.0
2016-May-31 07:31N 53°30' E 009°57'0 0.0
2016-May-31 06:31N 53°30' E 009°57'1 0.8
2016-May-31 04:33N 53°32' E 009°56'8 8.4
2016-May-31 03:34N 53°34' E 009°43'9 9.3
2016-May-31 02:33N 53°40' E 009°31'9 9.4
2016-May-31 01:33N 53°48' E 009°23'8 8.3
2016-May-31 00:33N 53°53' E 009°11'8 8.5
2016-May-30 23:34N 53°51' E 008°57'7 7.2
2016-May-30 22:33N 53°51' E 008°45'8 7.6
2016-May-30 21:31N 53°57' E 008°37'8 8.8
2016-May-30 20:33N 53°59' E 008°22'10 9.6
2016-May-30 19:32N 53°59' E 008°06'1010.4
2016-May-30 18:33N 53°57' E 007°49'9 9.0
2016-May-30 17:34N 54°01' E 007°35'6 5.8
2016-May-30 16:32N 54°03' E 007°25'0 0.0
2016-May-30 15:32N 54°03' E 007°25'0 0.0
2016-May-30 14:26N 54°03' E 007°25'0 0.0
2016-May-30 13:32N 54°03' E 007°25'0 0.0
2016-May-30 12:26N 54°03' E 007°25'0 0.0
2016-May-30 11:29N 54°03' E 007°25'0 0.0
2016-May-30 10:32N 54°03' E 007°25'0 0.0
2016-May-30 09:32N 54°03' E 007°25'0 0.0
2016-May-30 08:32N 54°03' E 007°25'0 0.0
2016-May-30 07:32N 54°03' E 007°25'0 0.0
2016-May-30 06:26N 54°03' E 007°25'0 0.0
2016-May-30 05:29N 54°03' E 007°25'0 0.0
2016-May-30 04:32N 54°03' E 007°25'0 0.0
2016-May-30 03:32N 54°03' E 007°25'0 0.0
2016-May-30 02:32N 54°03' E 007°25'0 0.0
2016-May-30 01:32N 54°03' E 007°25'0 0.0
2016-May-30 00:32N 54°03' E 007°25'0 0.0
2016-May-29 23:32N 54°03' E 007°25'0 0.0
2016-May-29 22:32N 54°03' E 007°25'0 0.0
2016-May-29 21:33N 54°03' E 007°25'0 0.0
2016-May-29 20:32N 54°03' E 007°25'0 0.0
2016-May-29 19:29N 54°03' E 007°25'0 0.0
2016-May-29 18:26N 54°03' E 007°25'0 0.0
2016-May-29 17:29N 54°03' E 007°25'0 0.0
2016-May-29 16:29N 54°03' E 007°25'0 0.0
2016-May-29 15:23N 54°03' E 007°25'0 0.0
2016-May-29 14:32N 54°03' E 007°25'0 0.0
2016-May-29 13:32N 54°03' E 007°25'0 0.0
2016-May-29 12:14N 54°03' E 007°25'0 0.0
2016-May-29 11:33N 54°03' E 007°25'0 0.1
2016-May-29 10:32N 54°03' E 007°25'0 0.0
2016-May-29 09:32N 54°03' E 007°25'0 0.0
2016-May-29 08:29N 54°03' E 007°25'0 0.0
2016-May-29 07:32N 54°03' E 007°25'0 0.0
2016-May-29 06:32N 54°03' E 007°25'0 0.0
2016-May-29 05:32N 54°03' E 007°25'0 0.0
2016-May-29 04:29N 54°03' E 007°25'0 0.0
2016-May-29 03:32N 54°03' E 007°25'0 0.1
2016-May-29 02:26N 54°03' E 007°25'0 0.0
2016-May-29 01:32N 54°03' E 007°25'0 0.0
2016-May-29 00:32N 54°03' E 007°25'0 0.1
2016-May-28 23:32N 54°03' E 007°25'0 0.0
2016-May-28 22:29N 54°03' E 007°25'0 0.0
2016-May-28 21:32N 54°03' E 007°25'0 0.0
2016-May-28 20:32N 54°03' E 007°25'0 0.0
2016-May-28 19:26N 54°03' E 007°25'0 0.0
2016-May-28 18:32N 54°03' E 007°25'0 0.0
2016-May-28 17:29N 54°03' E 007°25'0 0.0
2016-May-28 16:27N 54°03' E 007°25'0 0.0
2016-May-28 15:32N 54°03' E 007°25'0 0.1
2016-May-28 14:32N 54°03' E 007°25'0 0.0
2016-May-28 13:32N 54°03' E 007°25'0 0.0
2016-May-28 12:32N 54°03' E 007°25'0 0.0
2016-May-28 11:31N 54°03' E 007°25'0 0.1
2016-May-28 10:32N 54°03' E 007°25'0 0.0
2016-May-28 09:32N 54°03' E 007°25'0 0.0
2016-May-28 08:32N 54°03' E 007°25'0 0.0
2016-May-28 07:32N 54°03' E 007°25'0 0.0
2016-May-28 06:33N 54°03' E 007°25'0 0.0
2016-May-28 05:26N 54°03' E 007°25'0 0.0
2016-May-28 04:32N 54°03' E 007°25'0 0.0
2016-May-28 03:32N 54°03' E 007°25'0 0.1
2016-May-28 02:32N 54°03' E 007°25'0 0.0
2016-May-28 01:32N 54°03' E 007°25'0 0.0
2016-May-28 00:32N 54°03' E 007°25'0 0.0
2016-May-27 23:32N 54°03' E 007°25'0 0.1
2016-May-27 22:32N 54°03' E 007°25'0 0.1
2016-May-27 21:32N 54°03' E 007°25'0 0.0
2016-May-27 20:32N 54°03' E 007°25'0 0.0
2016-May-27 19:32N 54°03' E 007°25'0 0.0
2016-May-27 18:32N 54°03' E 007°25'0 0.0
2016-May-27 17:32N 54°03' E 007°25'0 0.0
2016-May-27 16:32N 54°03' E 007°25'0 0.0
2016-May-27 15:26N 54°03' E 007°25'0 0.1
2016-May-27 14:32N 54°03' E 007°25'0 0.0
2016-May-27 13:32N 54°03' E 007°25'0 0.0
2016-May-27 12:32N 54°03' E 007°25'0 0.0
2016-May-27 11:32N 54°03' E 007°25'0 0.0
2016-May-27 10:32N 54°03' E 007°25'0 0.1
2016-May-27 09:26N 54°03' E 007°25'0 0.0
2016-May-27 08:29N 54°03' E 007°25'0 0.0
2016-May-27 07:29N 54°03' E 007°25'0 0.0
2016-May-27 06:32N 54°03' E 007°25'0 0.0
2016-May-27 05:29N 54°03' E 007°25'0 0.0
2016-May-27 04:32N 54°03' E 007°25'0 0.0
2016-May-27 03:32N 54°03' E 007°25'0 0.1
2016-May-27 02:32N 54°03' E 007°25'0 0.0
2016-May-27 01:32N 54°03' E 007°25'0 0.0
2016-May-27 00:32N 54°03' E 007°25'0 0.0
2016-May-26 23:32N 54°03' E 007°25'0 0.0
2016-May-26 22:32N 54°03' E 007°25'0 0.0
2016-May-26 21:26N 54°03' E 007°25'0 0.1
2016-May-26 20:32N 54°03' E 007°25'0 0.0
2016-May-26 19:32N 54°03' E 007°25'0 0.0
2016-May-26 18:32N 54°03' E 007°25'8 7.7
2016-May-26 17:33N 54°10' E 007°19'9 9.3
2016-May-26 16:34N 54°11' E 007°34'1211.9
2016-May-26 15:33N 54°07' E 007°53'1110.9
2016-May-26 14:33N 54°03' E 008°10'1 0.8
2016-May-26 13:32N 54°02' E 008°11'0 0.0
2016-May-26 12:32N 54°02' E 008°11'0 0.0
2016-May-26 11:29N 54°02' E 008°11'0 0.0
2016-May-26 10:32N 54°02' E 008°11'0 0.0
2016-May-26 09:29N 54°02' E 008°11'0 0.1
2016-May-26 08:32N 54°02' E 008°11'0 0.0
2016-May-26 07:33N 54°02' E 008°11'0 0.0
2016-May-26 06:32N 54°02' E 008°11'0 0.0
2016-May-26 05:32N 54°02' E 008°11'0 0.0
2016-May-26 04:29N 54°02' E 008°11'0 0.1
2016-May-26 03:32N 54°02' E 008°11'0 0.0
2016-May-26 02:29N 54°02' E 008°11'0 0.0
2016-May-26 01:33N 54°02' E 008°11'0 0.0
2016-May-26 00:32N 54°02' E 008°11'0 0.0
2016-May-25 23:32N 54°02' E 008°11'0 0.0
2016-May-25 22:32N 54°02' E 008°11'0 0.1
2016-May-25 21:33N 54°02' E 008°11'0 0.0
2016-May-25 20:32N 54°02' E 008°11'0 0.0
2016-May-25 19:32N 54°02' E 008°11'0 0.0
2016-May-25 18:32N 54°02' E 008°11'0 0.0
2016-May-25 17:32N 54°02' E 008°11'0 0.0
2016-May-25 16:29N 54°02' E 008°11'0 0.0
2016-May-25 15:32N 54°02' E 008°11'0 0.1
2016-May-25 14:32N 54°02' E 008°11'0 0.1
2016-May-25 13:32N 54°02' E 008°11'0 0.0
2016-May-25 12:26N 54°02' E 008°11'0 0.0
2016-May-25 11:33N 54°02' E 008°11'0 0.0
2016-May-25 10:29N 54°02' E 008°11'0 0.0
2016-May-25 09:29N 54°02' E 008°11'0 0.1
2016-May-25 08:32N 54°02' E 008°11'0 0.0
2016-May-25 07:32N 54°02' E 008°11'0 0.0
2016-May-25 06:32N 54°02' E 008°11'0 0.0
2016-May-25 05:32N 54°02' E 008°11'0 0.0
2016-May-25 04:32N 54°02' E 008°11'0 0.0
2016-May-25 03:32N 54°02' E 008°11'0 0.1
2016-May-25 02:32N 54°02' E 008°11'0 0.0
2016-May-25 01:27N 54°02' E 008°11'0 0.0
2016-May-25 00:30N 54°02' E 008°11'0 0.0
2016-May-24 23:29N 54°02' E 008°11'0 0.0
2016-May-24 22:29N 54°02' E 008°11'0 0.0
2016-May-24 21:23N 54°02' E 008°11'0 0.1
2016-May-24 20:32N 54°02' E 008°11'0 0.0
2016-May-24 19:32N 54°02' E 008°11'0 0.0
2016-May-24 18:32N 54°02' E 008°11'0 0.0
2016-May-24 17:32N 54°02' E 008°11'0 0.0
2016-May-24 16:32N 54°02' E 008°11'0 0.0
2016-May-24 15:32N 54°02' E 008°11'0 0.1
2016-May-24 14:26N 54°02' E 008°11'0 0.0
2016-May-24 13:31N 54°02' E 008°11'0 0.0
2016-May-24 12:32N 54°02' E 008°11'0 0.0
2016-May-24 11:29N 54°02' E 008°11'0 0.0
2016-May-24 10:32N 54°02' E 008°11'0 0.0
2016-May-24 09:32N 54°02' E 008°11'0 0.0
2016-May-24 08:27N 54°02' E 008°11'0 0.0
2016-May-24 07:32N 54°02' E 008°11'0 0.0
2016-May-24 06:32N 54°02' E 008°11'0 0.1
2016-May-24 05:33N 54°02' E 008°11'0 0.0
2016-May-24 04:32N 54°02' E 008°11'0 0.0
2016-May-24 03:32N 54°02' E 008°11'0 0.1
2016-May-24 02:32N 54°02' E 008°11'0 0.0
2016-May-24 01:32N 54°02' E 008°11'0 0.0
2016-May-24 00:32N 54°02' E 008°11'0 0.0
2016-May-23 23:32N 54°02' E 008°11'0 0.0
2016-May-23 22:32N 54°02' E 008°11'0 0.0
2016-May-23 21:32N 54°02' E 008°11'0 0.0
2016-May-23 20:32N 54°02' E 008°11'0 0.0
2016-May-23 19:32N 54°02' E 008°11'0 0.0
2016-May-23 18:32N 54°02' E 008°11'0 0.1
2016-May-23 17:29N 54°02' E 008°11'0 0.0
2016-May-23 16:32N 54°02' E 008°11'0 0.0
2016-May-23 15:32N 54°02' E 008°11'0 0.0
2016-May-23 14:32N 54°02' E 008°11'0 0.0
2016-May-23 13:32N 54°02' E 008°11'0 0.0
2016-May-23 12:32N 54°02' E 008°11'0 0.0
2016-May-23 11:32N 54°02' E 008°11'0 0.0
2016-May-23 10:33N 54°02' E 008°11'0 0.0
2016-May-23 09:33N 54°02' E 008°11'0 0.0
2016-May-23 08:32N 54°02' E 008°11'0 0.0
2016-May-23 07:29N 54°02' E 008°11'0 0.0
2016-May-23 06:32N 54°02' E 008°11'0 0.0
2016-May-23 05:32N 54°02' E 008°11'0 0.0
2016-May-23 04:32N 54°02' E 008°11'0 0.0
2016-May-23 03:33N 54°02' E 008°11'0 0.0
2016-May-23 02:32N 54°02' E 008°11'0 0.0
2016-May-23 01:30N 54°02' E 008°11'0 0.0
2016-May-23 00:32N 54°02' E 008°11'0 0.1
2016-May-22 23:32N 54°02' E 008°11'0 0.0
2016-May-22 22:27N 54°02' E 008°11'0 0.0
2016-May-22 21:32N 54°02' E 008°11'0 0.0
2016-May-22 20:32N 54°02' E 008°11'0 0.5
2016-May-22 19:33N 54°02' E 008°12'1312.6
2016-May-22 18:33N 53°58' E 008°33'1414.0
2016-May-22 17:34N 53°51' E 008°52'1414.0
2016-May-22 16:34N 53°53' E 009°16'1211.8
2016-May-22 15:34N 53°43' E 009°28'9 9.3
2016-May-22 14:34N 53°35' E 009°37'9 9.4
2016-May-22 13:34N 53°33' E 009°52'2 1.8
2016-May-22 12:31N 53°31' E 009°53'0 0.0
2016-May-22 11:31N 53°31' E 009°53'0 0.0
2016-May-22 10:28N 53°31' E 009°53'0 0.0
2016-May-22 09:31N 53°31' E 009°53'0 0.0
2016-May-22 08:31N 53°31' E 009°53'0 0.0
2016-May-22 07:31N 53°31' E 009°53'0 0.0
2016-May-22 06:28N 53°31' E 009°53'0 0.0
2016-May-22 05:28N 53°31' E 009°53'0 0.0
2016-May-22 04:31N 53°31' E 009°53'  

Dump ship's entire track history